sensor_id;sensor_type;location;lat;lon;timestamp;P1;durP1;ratioP1;P2;durP2;ratioP2
67571;SDS011;54397;47.506;19.158;2022-10-29T00:02:28;61.65;;;28.85;;
67571;SDS011;54397;47.506;19.158;2022-10-29T00:05:53;73.45;;;30.17;;
67571;SDS011;54397;47.506;19.158;2022-10-29T00:09:18;63.00;;;27.75;;
67571;SDS011;54397;47.506;19.158;2022-10-29T00:12:40;73.82;;;30.15;;
67571;SDS011;54397;47.506;19.158;2022-10-29T00:16:08;71.13;;;27.77;;
67571;SDS011;54397;47.506;19.158;2022-10-29T00:19:34;66.70;;;27.50;;
67571;SDS011;54397;47.506;19.158;2022-10-29T00:22:56;65.30;;;28.30;;
67571;SDS011;54397;47.506;19.158;2022-10-29T00:26:20;58.40;;;26.48;;
67571;SDS011;54397;47.506;19.158;2022-10-29T00:29:42;62.08;;;26.60;;
67571;SDS011;54397;47.506;19.158;2022-10-29T00:33:04;62.40;;;26.10;;
67571;SDS011;54397;47.506;19.158;2022-10-29T00:36:26;61.13;;;27.25;;
67571;SDS011;54397;47.506;19.158;2022-10-29T00:39:49;63.67;;;28.80;;
67571;SDS011;54397;47.506;19.158;2022-10-29T00:43:14;63.60;;;29.00;;
67571;SDS011;54397;47.506;19.158;2022-10-29T00:46:37;64.78;;;28.75;;
67571;SDS011;54397;47.506;19.158;2022-10-29T00:50:08;66.70;;;28.58;;
67571;SDS011;54397;47.506;19.158;2022-10-29T00:53:33;67.35;;;29.17;;
67571;SDS011;54397;47.506;19.158;2022-10-29T00:57:02;70.68;;;30.27;;
67571;SDS011;54397;47.506;19.158;2022-10-29T01:00:29;59.78;;;29.45;;
67571;SDS011;54397;47.506;19.158;2022-10-29T01:03:51;65.47;;;30.38;;
67571;SDS011;54397;47.506;19.158;2022-10-29T01:07:14;65.13;;;28.70;;
67571;SDS011;54397;47.506;19.158;2022-10-29T01:35:17;79.07;;;28.85;;
67571;SDS011;54397;47.506;19.158;2022-10-29T01:38:50;60.70;;;27.92;;
67571;SDS011;54397;47.506;19.158;2022-10-29T01:42:43;59.72;;;27.52;;
67571;SDS011;54397;47.506;19.158;2022-10-29T01:46:20;273.60;;;138.27;;
67571;SDS011;54397;47.506;19.158;2022-10-29T01:49:50;86.90;;;36.85;;
67571;SDS011;54397;47.506;19.158;2022-10-29T01:53:15;71.22;;;29.67;;
67571;SDS011;54397;47.506;19.158;2022-10-29T01:56:42;79.43;;;31.13;;
67571;SDS011;54397;47.506;19.158;2022-10-29T02:00:21;74.72;;;29.63;;
67571;SDS011;54397;47.506;19.158;2022-10-29T02:10:46;72.65;;;31.00;;
67571;SDS011;54397;47.506;19.158;2022-10-29T02:14:16;74.32;;;29.67;;
67571;SDS011;54397;47.506;19.158;2022-10-29T02:17:43;72.25;;;30.17;;
67571;SDS011;54397;47.506;19.158;2022-10-29T02:21:05;80.72;;;33.03;;
67571;SDS011;54397;47.506;19.158;2022-10-29T02:24:29;94.07;;;35.88;;
67571;SDS011;54397;47.506;19.158;2022-10-29T02:27:53;87.20;;;33.58;;
67571;SDS011;54397;47.506;19.158;2022-10-29T02:31:17;88.72;;;34.00;;
67571;SDS011;54397;47.506;19.158;2022-10-29T02:34:42;79.53;;;33.33;;
67571;SDS011;54397;47.506;19.158;2022-10-29T02:38:03;78.95;;;32.17;;
67571;SDS011;54397;47.506;19.158;2022-10-29T02:41:27;71.38;;;28.98;;
67571;SDS011;54397;47.506;19.158;2022-10-29T02:44:51;70.10;;;29.73;;
67571;SDS011;54397;47.506;19.158;2022-10-29T02:48:13;75.18;;;29.13;;
67571;SDS011;54397;47.506;19.158;2022-10-29T02:51:34;65.85;;;27.45;;
67571;SDS011;54397;47.506;19.158;2022-10-29T02:54:56;65.88;;;28.10;;
67571;SDS011;54397;47.506;19.158;2022-10-29T02:58:17;58.28;;;25.08;;
67571;SDS011;54397;47.506;19.158;2022-10-29T03:01:39;52.60;;;24.95;;
67571;SDS011;54397;47.506;19.158;2022-10-29T03:05:01;49.42;;;22.55;;
67571;SDS011;54397;47.506;19.158;2022-10-29T03:08:24;51.00;;;22.60;;
67571;SDS011;54397;47.506;19.158;2022-10-29T03:11:46;135.68;;;63.33;;
67571;SDS011;54397;47.506;19.158;2022-10-29T03:15:10;46.75;;;21.98;;
67571;SDS011;54397;47.506;19.158;2022-10-29T03:18:34;51.13;;;22.98;;
67571;SDS011;54397;47.506;19.158;2022-10-29T03:21:58;47.33;;;22.00;;
67571;SDS011;54397;47.506;19.158;2022-10-29T03:25:20;50.58;;;22.27;;
67571;SDS011;54397;47.506;19.158;2022-10-29T03:28:42;48.30;;;22.83;;
67571;SDS011;54397;47.506;19.158;2022-10-29T03:32:03;45.42;;;22.95;;
67571;SDS011;54397;47.506;19.158;2022-10-29T03:35:25;47.30;;;24.52;;
67571;SDS011;54397;47.506;19.158;2022-10-29T03:38:47;49.65;;;22.48;;
67571;SDS011;54397;47.506;19.158;2022-10-29T03:42:09;47.80;;;22.42;;
67571;SDS011;54397;47.506;19.158;2022-10-29T03:45:30;45.92;;;23.05;;
67571;SDS011;54397;47.506;19.158;2022-10-29T03:48:52;52.20;;;24.15;;
67571;SDS011;54397;47.506;19.158;2022-10-29T03:52:14;52.03;;;22.23;;
67571;SDS011;54397;47.506;19.158;2022-10-29T03:55:35;45.00;;;22.00;;
67571;SDS011;54397;47.506;19.158;2022-10-29T03:58:59;47.28;;;23.55;;
67571;SDS011;54397;47.506;19.158;2022-10-29T04:02:23;50.17;;;23.25;;
67571;SDS011;54397;47.506;19.158;2022-10-29T04:05:50;47.75;;;22.08;;
67571;SDS011;54397;47.506;19.158;2022-10-29T04:09:12;46.55;;;21.05;;
67571;SDS011;54397;47.506;19.158;2022-10-29T04:12:34;43.88;;;20.23;;
67571;SDS011;54397;47.506;19.158;2022-10-29T04:15:55;45.28;;;20.70;;
67571;SDS011;54397;47.506;19.158;2022-10-29T04:19:17;48.70;;;21.65;;
67571;SDS011;54397;47.506;19.158;2022-10-29T04:22:38;50.00;;;22.15;;
67571;SDS011;54397;47.506;19.158;2022-10-29T04:26:20;49.47;;;21.55;;
67571;SDS011;54397;47.506;19.158;2022-10-29T04:30:02;46.30;;;21.45;;
67571;SDS011;54397;47.506;19.158;2022-10-29T04:33:23;46.55;;;22.10;;
67571;SDS011;54397;47.506;19.158;2022-10-29T04:36:45;44.25;;;19.88;;
67571;SDS011;54397;47.506;19.158;2022-10-29T04:40:09;47.40;;;20.17;;
67571;SDS011;54397;47.506;19.158;2022-10-29T04:43:31;45.22;;;20.58;;
67571;SDS011;54397;47.506;19.158;2022-10-29T04:46:55;46.80;;;21.85;;
67571;SDS011;54397;47.506;19.158;2022-10-29T04:50:21;45.85;;;21.13;;
67571;SDS011;54397;47.506;19.158;2022-10-29T04:53:46;49.28;;;22.23;;
67571;SDS011;54397;47.506;19.158;2022-10-29T04:57:10;48.72;;;21.08;;
67571;SDS011;54397;47.506;19.158;2022-10-29T05:00:36;49.92;;;22.42;;
67571;SDS011;54397;47.506;19.158;2022-10-29T05:04:00;54.95;;;22.50;;
67571;SDS011;54397;47.506;19.158;2022-10-29T05:07:21;63.15;;;26.33;;
67571;SDS011;54397;47.506;19.158;2022-10-29T05:10:43;63.92;;;26.20;;
67571;SDS011;54397;47.506;19.158;2022-10-29T05:14:04;68.82;;;27.20;;
67571;SDS011;54397;47.506;19.158;2022-10-29T05:17:26;60.83;;;26.85;;
67571;SDS011;54397;47.506;19.158;2022-10-29T05:20:51;68.10;;;25.95;;
67571;SDS011;54397;47.506;19.158;2022-10-29T05:24:13;60.95;;;26.17;;
67571;SDS011;54397;47.506;19.158;2022-10-29T05:27:35;67.85;;;27.45;;
67571;SDS011;54397;47.506;19.158;2022-10-29T05:30:59;66.05;;;26.90;;
67571;SDS011;54397;47.506;19.158;2022-10-29T05:34:22;63.00;;;26.13;;
67571;SDS011;54397;47.506;19.158;2022-10-29T05:37:49;63.60;;;25.13;;
67571;SDS011;54397;47.506;19.158;2022-10-29T05:41:14;56.90;;;24.80;;
67571;SDS011;54397;47.506;19.158;2022-10-29T05:44:38;54.25;;;24.80;;
67571;SDS011;54397;47.506;19.158;2022-10-29T05:48:01;63.75;;;27.85;;
67571;SDS011;54397;47.506;19.158;2022-10-29T05:51:25;70.10;;;27.30;;
67571;SDS011;54397;47.506;19.158;2022-10-29T05:54:46;65.82;;;27.52;;
67571;SDS011;54397;47.506;19.158;2022-10-29T05:58:11;68.97;;;27.80;;
67571;SDS011;54397;47.506;19.158;2022-10-29T06:01:33;72.55;;;30.67;;
67571;SDS011;54397;47.506;19.158;2022-10-29T06:04:55;67.18;;;29.20;;
67571;SDS011;54397;47.506;19.158;2022-10-29T06:08:16;68.13;;;30.13;;
67571;SDS011;54397;47.506;19.158;2022-10-29T06:11:40;88.20;;;32.30;;
67571;SDS011;54397;47.506;19.158;2022-10-29T06:15:02;90.85;;;33.35;;
67571;SDS011;54397;47.506;19.158;2022-10-29T06:18:24;82.80;;;30.75;;
67571;SDS011;54397;47.506;19.158;2022-10-29T06:21:47;87.13;;;33.15;;
67571;SDS011;54397;47.506;19.158;2022-10-29T06:25:14;77.60;;;31.35;;
67571;SDS011;54397;47.506;19.158;2022-10-29T06:28:35;79.15;;;33.50;;
67571;SDS011;54397;47.506;19.158;2022-10-29T06:31:57;75.95;;;31.75;;
67571;SDS011;54397;47.506;19.158;2022-10-29T06:35:18;73.68;;;31.27;;
67571;SDS011;54397;47.506;19.158;2022-10-29T06:38:42;69.35;;;31.95;;
67571;SDS011;54397;47.506;19.158;2022-10-29T06:42:04;62.58;;;28.23;;
67571;SDS011;54397;47.506;19.158;2022-10-29T06:45:28;66.43;;;29.83;;
67571;SDS011;54397;47.506;19.158;2022-10-29T06:48:50;55.58;;;28.48;;
67571;SDS011;54397;47.506;19.158;2022-10-29T06:52:12;75.93;;;31.30;;
67571;SDS011;54397;47.506;19.158;2022-10-29T06:55:33;76.25;;;32.22;;
67571;SDS011;54397;47.506;19.158;2022-10-29T06:58:57;74.00;;;32.17;;
67571;SDS011;54397;47.506;19.158;2022-10-29T07:02:19;73.20;;;31.23;;
67571;SDS011;54397;47.506;19.158;2022-10-29T07:05:42;71.10;;;31.45;;
67571;SDS011;54397;47.506;19.158;2022-10-29T07:09:03;78.57;;;33.15;;
67571;SDS011;54397;47.506;19.158;2022-10-29T07:12:25;82.53;;;34.50;;
67571;SDS011;54397;47.506;19.158;2022-10-29T07:15:46;88.00;;;35.72;;
67571;SDS011;54397;47.506;19.158;2022-10-29T07:19:10;105.97;;;44.75;;
67571;SDS011;54397;47.506;19.158;2022-10-29T07:22:37;93.15;;;36.33;;
67571;SDS011;54397;47.506;19.158;2022-10-29T07:26:01;93.38;;;37.40;;
67571;SDS011;54397;47.506;19.158;2022-10-29T07:29:22;99.72;;;36.42;;
67571;SDS011;54397;47.506;19.158;2022-10-29T07:32:44;99.28;;;37.35;;
67571;SDS011;54397;47.506;19.158;2022-10-29T07:36:06;96.88;;;38.53;;
67571;SDS011;54397;47.506;19.158;2022-10-29T07:39:29;93.60;;;35.38;;
67571;SDS011;54397;47.506;19.158;2022-10-29T07:42:52;84.38;;;36.15;;
67571;SDS011;54397;47.506;19.158;2022-10-29T07:46:17;92.28;;;39.90;;
67571;SDS011;54397;47.506;19.158;2022-10-29T07:49:39;88.20;;;33.28;;
67571;SDS011;54397;47.506;19.158;2022-10-29T07:53:01;79.50;;;32.63;;
67571;SDS011;54397;47.506;19.158;2022-10-29T07:56:26;79.53;;;32.30;;
67571;SDS011;54397;47.506;19.158;2022-10-29T07:59:47;70.03;;;31.02;;
67571;SDS011;54397;47.506;19.158;2022-10-29T08:03:12;74.32;;;32.22;;
67571;SDS011;54397;47.506;19.158;2022-10-29T08:06:36;72.90;;;31.10;;
67571;SDS011;54397;47.506;19.158;2022-10-29T08:09:58;73.03;;;31.98;;
67571;SDS011;54397;47.506;19.158;2022-10-29T08:13:22;66.88;;;30.58;;
67571;SDS011;54397;47.506;19.158;2022-10-29T08:16:43;70.25;;;31.45;;
67571;SDS011;54397;47.506;19.158;2022-10-29T08:20:07;66.55;;;31.67;;
67571;SDS011;54397;47.506;19.158;2022-10-29T08:23:31;77.53;;;33.58;;
67571;SDS011;54397;47.506;19.158;2022-10-29T08:26:55;84.07;;;33.25;;
67571;SDS011;54397;47.506;19.158;2022-10-29T08:30:17;72.20;;;32.72;;
67571;SDS011;54397;47.506;19.158;2022-10-29T08:33:38;84.80;;;34.67;;
67571;SDS011;54397;47.506;19.158;2022-10-29T08:37:02;80.25;;;34.80;;
67571;SDS011;54397;47.506;19.158;2022-10-29T08:51:35;66.90;;;31.15;;
67571;SDS011;54397;47.506;19.158;2022-10-29T08:55:06;67.85;;;29.80;;
67571;SDS011;54397;47.506;19.158;2022-10-29T08:58:53;58.67;;;27.27;;
67571;SDS011;54397;47.506;19.158;2022-10-29T09:02:18;58.83;;;27.08;;
67571;SDS011;54397;47.506;19.158;2022-10-29T09:05:48;64.10;;;32.25;;
67571;SDS011;54397;47.506;19.158;2022-10-29T09:13:18;56.80;;;28.52;;
67571;SDS011;54397;47.506;19.158;2022-10-29T09:31:36;66.78;;;31.33;;
67571;SDS011;54397;47.506;19.158;2022-10-29T09:38:35;66.18;;;36.95;;
67571;SDS011;54397;47.506;19.158;2022-10-29T09:42:11;83.40;;;39.47;;
67571;SDS011;54397;47.506;19.158;2022-10-29T09:52:43;57.63;;;32.63;;
67571;SDS011;54397;47.506;19.158;2022-10-29T09:56:11;44.38;;;27.70;;
67571;SDS011;54397;47.506;19.158;2022-10-29T10:06:25;60.95;;;34.13;;
67571;SDS011;54397;47.506;19.158;2022-10-29T10:09:54;61.38;;;32.92;;
67571;SDS011;54397;47.506;19.158;2022-10-29T10:13:24;63.60;;;35.55;;
67571;SDS011;54397;47.506;19.158;2022-10-29T10:16:59;72.22;;;35.05;;
67571;SDS011;54397;47.506;19.158;2022-10-29T10:20:24;67.03;;;36.25;;
67571;SDS011;54397;47.506;19.158;2022-10-29T10:23:50;62.55;;;33.60;;
67571;SDS011;54397;47.506;19.158;2022-10-29T10:30:39;55.78;;;32.25;;
67571;SDS011;54397;47.506;19.158;2022-10-29T10:34:22;57.30;;;33.47;;
67571;SDS011;54397;47.506;19.158;2022-10-29T10:37:47;56.38;;;32.45;;
67571;SDS011;54397;47.506;19.158;2022-10-29T10:41:09;47.75;;;28.35;;
67571;SDS011;54397;47.506;19.158;2022-10-29T10:44:34;50.22;;;29.08;;
67571;SDS011;54397;47.506;19.158;2022-10-29T10:47:56;45.30;;;26.80;;
67571;SDS011;54397;47.506;19.158;2022-10-29T10:51:23;45.00;;;26.95;;
67571;SDS011;54397;47.506;19.158;2022-10-29T11:01:41;41.13;;;26.25;;
67571;SDS011;54397;47.506;19.158;2022-10-29T11:05:11;39.47;;;25.30;;
67571;SDS011;54397;47.506;19.158;2022-10-29T11:12:38;45.78;;;27.40;;
67571;SDS011;54397;47.506;19.158;2022-10-29T11:16:12;45.38;;;27.17;;
67571;SDS011;54397;47.506;19.158;2022-10-29T11:19:39;39.97;;;25.67;;
67571;SDS011;54397;47.506;19.158;2022-10-29T11:30:43;39.57;;;24.63;;
67571;SDS011;54397;47.506;19.158;2022-10-29T11:34:16;38.65;;;25.58;;
67571;SDS011;54397;47.506;19.158;2022-10-29T11:44:43;40.83;;;25.50;;
67571;SDS011;54397;47.506;19.158;2022-10-29T11:55:37;38.55;;;24.70;;
67571;SDS011;54397;47.506;19.158;2022-10-29T11:59:09;43.83;;;27.92;;
67571;SDS011;54397;47.506;19.158;2022-10-29T12:10:23;41.70;;;27.55;;
67571;SDS011;54397;47.506;19.158;2022-10-29T12:17:34;41.10;;;29.73;;
67571;SDS011;54397;47.506;19.158;2022-10-29T12:21:08;42.40;;;26.83;;
67571;SDS011;54397;47.506;19.158;2022-10-29T12:24:48;45.10;;;28.92;;
67571;SDS011;54397;47.506;19.158;2022-10-29T12:31:46;45.40;;;29.13;;
67571;SDS011;54397;47.506;19.158;2022-10-29T12:35:18;49.53;;;31.23;;
67571;SDS011;54397;47.506;19.158;2022-10-29T12:38:53;43.63;;;28.38;;
67571;SDS011;54397;47.506;19.158;2022-10-29T12:42:18;47.45;;;31.10;;
67571;SDS011;54397;47.506;19.158;2022-10-29T12:57:01;44.05;;;28.52;;
67571;SDS011;54397;47.506;19.158;2022-10-29T13:00:42;47.22;;;30.33;;
67571;SDS011;54397;47.506;19.158;2022-10-29T13:04:10;47.90;;;30.33;;
67571;SDS011;54397;47.506;19.158;2022-10-29T13:11:17;62.80;;;35.30;;
67571;SDS011;54397;47.506;19.158;2022-10-29T13:14:54;52.92;;;31.88;;
67571;SDS011;54397;47.506;19.158;2022-10-29T13:18:30;55.25;;;33.35;;
67571;SDS011;54397;47.506;19.158;2022-10-29T13:28:56;58.45;;;35.53;;
67571;SDS011;54397;47.506;19.158;2022-10-29T13:32:38;57.42;;;36.50;;
67571;SDS011;54397;47.506;19.158;2022-10-29T13:39:37;66.13;;;36.58;;
67571;SDS011;54397;47.506;19.158;2022-10-29T13:43:03;57.28;;;35.00;;
67571;SDS011;54397;47.506;19.158;2022-10-29T13:46:38;59.95;;;36.55;;
67571;SDS011;54397;47.506;19.158;2022-10-29T13:50:16;51.42;;;33.20;;
67571;SDS011;54397;47.506;19.158;2022-10-29T13:53:45;50.33;;;33.03;;
67571;SDS011;54397;47.506;19.158;2022-10-29T14:00:36;49.40;;;30.65;;
67571;SDS011;54397;47.506;19.158;2022-10-29T14:03:59;47.70;;;30.75;;
67571;SDS011;54397;47.506;19.158;2022-10-29T14:07:32;50.72;;;32.05;;
67571;SDS011;54397;47.506;19.158;2022-10-29T14:11:02;47.67;;;30.90;;
67571;SDS011;54397;47.506;19.158;2022-10-29T14:15:05;39.20;;;27.25;;
67571;SDS011;54397;47.506;19.158;2022-10-29T14:18:31;39.75;;;27.35;;
67571;SDS011;54397;47.506;19.158;2022-10-29T14:21:58;37.88;;;26.20;;
67571;SDS011;54397;47.506;19.158;2022-10-29T14:28:52;34.47;;;23.92;;
67571;SDS011;54397;47.506;19.158;2022-10-29T14:32:21;38.55;;;26.50;;
67571;SDS011;54397;47.506;19.158;2022-10-29T14:35:43;39.17;;;28.58;;
67571;SDS011;54397;47.506;19.158;2022-10-29T14:39:12;33.65;;;23.63;;
67571;SDS011;54397;47.506;19.158;2022-10-29T14:42:42;33.10;;;22.95;;
67571;SDS011;54397;47.506;19.158;2022-10-29T14:46:11;33.53;;;22.70;;
67571;SDS011;54397;47.506;19.158;2022-10-29T14:49:46;31.88;;;21.92;;
67571;SDS011;54397;47.506;19.158;2022-10-29T14:53:18;64.07;;;22.98;;
67571;SDS011;54397;47.506;19.158;2022-10-29T14:56:53;32.88;;;21.70;;
67571;SDS011;54397;47.506;19.158;2022-10-29T15:00:21;32.25;;;22.90;;
67571;SDS011;54397;47.506;19.158;2022-10-29T15:03:44;32.50;;;21.75;;
67571;SDS011;54397;47.506;19.158;2022-10-29T15:14:24;29.05;;;20.55;;
67571;SDS011;54397;47.506;19.158;2022-10-29T15:18:01;40.30;;;26.13;;
67571;SDS011;54397;47.506;19.158;2022-10-29T15:21:30;32.63;;;22.00;;
67571;SDS011;54397;47.506;19.158;2022-10-29T15:24:53;30.63;;;22.45;;
67571;SDS011;54397;47.506;19.158;2022-10-29T15:28:50;29.58;;;20.48;;
67571;SDS011;54397;47.506;19.158;2022-10-29T15:32:09;29.65;;;20.02;;
67571;SDS011;54397;47.506;19.158;2022-10-29T15:35:34;30.13;;;22.35;;
67571;SDS011;54397;47.506;19.158;2022-10-29T15:39:07;31.67;;;21.73;;
67571;SDS011;54397;47.506;19.158;2022-10-29T15:42:40;30.20;;;21.60;;
67571;SDS011;54397;47.506;19.158;2022-10-29T15:46:02;35.13;;;23.17;;
67571;SDS011;54397;47.506;19.158;2022-10-29T15:49:24;31.55;;;21.42;;
67571;SDS011;54397;47.506;19.158;2022-10-29T15:56:16;26.92;;;20.08;;
67571;SDS011;54397;47.506;19.158;2022-10-29T15:59:38;28.25;;;20.45;;
67571;SDS011;54397;47.506;19.158;2022-10-29T16:03:12;26.17;;;19.42;;
67571;SDS011;54397;47.506;19.158;2022-10-29T16:06:34;37.63;;;25.70;;
67571;SDS011;54397;47.506;19.158;2022-10-29T16:09:58;34.30;;;24.75;;
67571;SDS011;54397;47.506;19.158;2022-10-29T16:13:25;37.40;;;26.77;;
67571;SDS011;54397;47.506;19.158;2022-10-29T16:16:48;30.63;;;19.60;;
67571;SDS011;54397;47.506;19.158;2022-10-29T16:20:14;31.23;;;20.95;;
67571;SDS011;54397;47.506;19.158;2022-10-29T16:23:39;28.40;;;19.83;;
67571;SDS011;54397;47.506;19.158;2022-10-29T16:27:01;31.30;;;21.80;;
67571;SDS011;54397;47.506;19.158;2022-10-29T16:30:25;32.83;;;21.17;;
67571;SDS011;54397;47.506;19.158;2022-10-29T16:33:57;35.65;;;23.15;;
67571;SDS011;54397;47.506;19.158;2022-10-29T16:37:22;34.28;;;21.20;;
67571;SDS011;54397;47.506;19.158;2022-10-29T16:40:43;26.20;;;19.58;;
67571;SDS011;54397;47.506;19.158;2022-10-29T16:44:05;29.98;;;20.85;;
67571;SDS011;54397;47.506;19.158;2022-10-29T16:47:27;30.05;;;21.40;;
67571;SDS011;54397;47.506;19.158;2022-10-29T16:50:48;38.80;;;27.50;;
67571;SDS011;54397;47.506;19.158;2022-10-29T16:54:10;32.63;;;25.20;;
67571;SDS011;54397;47.506;19.158;2022-10-29T16:57:31;31.85;;;21.02;;
67571;SDS011;54397;47.506;19.158;2022-10-29T17:01:05;30.42;;;21.33;;
67571;SDS011;54397;47.506;19.158;2022-10-29T17:04:28;30.63;;;21.27;;
67571;SDS011;54397;47.506;19.158;2022-10-29T17:07:55;32.75;;;21.88;;
67571;SDS011;54397;47.506;19.158;2022-10-29T17:11:17;32.20;;;20.70;;
67571;SDS011;54397;47.506;19.158;2022-10-29T17:14:41;32.55;;;22.45;;
67571;SDS011;54397;47.506;19.158;2022-10-29T17:18:05;32.20;;;21.10;;
67571;SDS011;54397;47.506;19.158;2022-10-29T17:21:31;30.75;;;20.98;;
67571;SDS011;54397;47.506;19.158;2022-10-29T17:24:53;31.65;;;20.23;;
67571;SDS011;54397;47.506;19.158;2022-10-29T17:28:15;30.38;;;19.30;;
67571;SDS011;54397;47.506;19.158;2022-10-29T17:31:36;32.45;;;21.73;;
67571;SDS011;54397;47.506;19.158;2022-10-29T17:34:58;38.35;;;22.98;;
67571;SDS011;54397;47.506;19.158;2022-10-29T17:38:21;52.58;;;33.00;;
67571;SDS011;54397;47.506;19.158;2022-10-29T17:41:46;84.32;;;50.30;;
67571;SDS011;54397;47.506;19.158;2022-10-29T17:45:09;33.10;;;20.42;;
67571;SDS011;54397;47.506;19.158;2022-10-29T17:48:31;27.83;;;19.45;;
67571;SDS011;54397;47.506;19.158;2022-10-29T17:51:54;28.52;;;18.67;;
67571;SDS011;54397;47.506;19.158;2022-10-29T17:55:16;30.38;;;20.20;;
67571;SDS011;54397;47.506;19.158;2022-10-29T17:58:46;33.42;;;20.88;;
67571;SDS011;54397;47.506;19.158;2022-10-29T18:02:12;32.13;;;21.30;;
67571;SDS011;54397;47.506;19.158;2022-10-29T18:05:38;33.42;;;21.25;;
67571;SDS011;54397;47.506;19.158;2022-10-29T18:09:02;34.42;;;22.33;;
67571;SDS011;54397;47.506;19.158;2022-10-29T18:12:28;38.70;;;23.33;;
67571;SDS011;54397;47.506;19.158;2022-10-29T18:15:52;39.25;;;24.83;;
67571;SDS011;54397;47.506;19.158;2022-10-29T18:19:16;38.00;;;24.52;;
67571;SDS011;54397;47.506;19.158;2022-10-29T18:22:41;40.60;;;24.60;;
67571;SDS011;54397;47.506;19.158;2022-10-29T18:26:17;39.88;;;24.88;;
67571;SDS011;54397;47.506;19.158;2022-10-29T18:29:48;56.00;;;31.98;;
67571;SDS011;54397;47.506;19.158;2022-10-29T18:33:09;50.05;;;28.60;;
67571;SDS011;54397;47.506;19.158;2022-10-29T18:36:34;45.65;;;27.20;;
67571;SDS011;54397;47.506;19.158;2022-10-29T18:40:00;44.88;;;27.25;;
67571;SDS011;54397;47.506;19.158;2022-10-29T18:43:22;46.28;;;28.17;;
67571;SDS011;54397;47.506;19.158;2022-10-29T18:46:46;49.20;;;29.08;;
67571;SDS011;54397;47.506;19.158;2022-10-29T18:50:08;51.92;;;28.45;;
67571;SDS011;54397;47.506;19.158;2022-10-29T18:53:32;54.85;;;32.22;;
67571;SDS011;54397;47.506;19.158;2022-10-29T18:56:55;55.40;;;31.45;;
67571;SDS011;54397;47.506;19.158;2022-10-29T19:00:17;60.20;;;35.60;;
67571;SDS011;54397;47.506;19.158;2022-10-29T19:03:39;61.85;;;33.92;;
67571;SDS011;54397;47.506;19.158;2022-10-29T19:07:03;62.70;;;35.47;;
67571;SDS011;54397;47.506;19.158;2022-10-29T19:10:33;61.95;;;35.30;;
67571;SDS011;54397;47.506;19.158;2022-10-29T19:14:01;61.85;;;33.63;;
67571;SDS011;54397;47.506;19.158;2022-10-29T19:17:25;94.90;;;43.25;;
67571;SDS011;54397;47.506;19.158;2022-10-29T19:20:47;85.30;;;42.67;;
67571;SDS011;54397;47.506;19.158;2022-10-29T19:24:11;75.13;;;40.05;;
67571;SDS011;54397;47.506;19.158;2022-10-29T19:27:35;75.88;;;39.10;;
67571;SDS011;54397;47.506;19.158;2022-10-29T19:31:03;62.33;;;36.88;;
67571;SDS011;54397;47.506;19.158;2022-10-29T19:34:28;55.08;;;32.22;;
67571;SDS011;54397;47.506;19.158;2022-10-29T19:37:52;57.03;;;32.83;;
67571;SDS011;54397;47.506;19.158;2022-10-29T19:41:14;60.80;;;34.50;;
67571;SDS011;54397;47.506;19.158;2022-10-29T19:44:38;57.42;;;33.72;;
67571;SDS011;54397;47.506;19.158;2022-10-29T19:47:59;61.15;;;35.83;;
67571;SDS011;54397;47.506;19.158;2022-10-29T19:51:21;72.30;;;42.00;;
67571;SDS011;54397;47.506;19.158;2022-10-29T19:54:43;84.70;;;47.15;;
67571;SDS011;54397;47.506;19.158;2022-10-29T19:58:05;69.20;;;36.30;;
67571;SDS011;54397;47.506;19.158;2022-10-29T20:01:29;58.20;;;34.10;;
67571;SDS011;54397;47.506;19.158;2022-10-29T20:04:56;56.05;;;35.30;;
67571;SDS011;54397;47.506;19.158;2022-10-29T20:08:17;59.50;;;35.50;;
67571;SDS011;54397;47.506;19.158;2022-10-29T20:11:40;65.97;;;37.47;;
67571;SDS011;54397;47.506;19.158;2022-10-29T20:15:02;62.97;;;37.40;;
67571;SDS011;54397;47.506;19.158;2022-10-29T20:18:23;71.32;;;40.72;;
67571;SDS011;54397;47.506;19.158;2022-10-29T20:21:45;72.55;;;39.80;;
67571;SDS011;54397;47.506;19.158;2022-10-29T20:25:07;82.90;;;42.33;;
67571;SDS011;54397;47.506;19.158;2022-10-29T20:28:31;75.65;;;41.55;;
67571;SDS011;54397;47.506;19.158;2022-10-29T20:31:53;65.40;;;39.72;;
67571;SDS011;54397;47.506;19.158;2022-10-29T20:35:19;63.83;;;37.22;;
67571;SDS011;54397;47.506;19.158;2022-10-29T20:38:42;63.45;;;35.65;;
67571;SDS011;54397;47.506;19.158;2022-10-29T20:42:03;61.35;;;36.92;;
67571;SDS011;54397;47.506;19.158;2022-10-29T20:45:30;58.28;;;36.08;;
67571;SDS011;54397;47.506;19.158;2022-10-29T20:48:51;63.25;;;36.97;;
67571;SDS011;54397;47.506;19.158;2022-10-29T20:52:14;66.35;;;42.00;;
67571;SDS011;54397;47.506;19.158;2022-10-29T20:55:35;152.77;;;91.32;;
67571;SDS011;54397;47.506;19.158;2022-10-29T20:58:57;68.38;;;42.10;;
67571;SDS011;54397;47.506;19.158;2022-10-29T21:02:21;70.97;;;42.33;;
67571;SDS011;54397;47.506;19.158;2022-10-29T21:05:45;74.97;;;42.42;;
67571;SDS011;54397;47.506;19.158;2022-10-29T21:09:09;72.35;;;42.00;;
67571;SDS011;54397;47.506;19.158;2022-10-29T21:12:31;80.68;;;44.92;;
67571;SDS011;54397;47.506;19.158;2022-10-29T21:15:52;82.50;;;43.67;;
67571;SDS011;54397;47.506;19.158;2022-10-29T21:19:16;76.07;;;41.45;;
67571;SDS011;54397;47.506;19.158;2022-10-29T21:22:40;74.15;;;43.25;;
67571;SDS011;54397;47.506;19.158;2022-10-29T21:26:02;85.18;;;43.95;;
67571;SDS011;54397;47.506;19.158;2022-10-29T21:29:25;77.45;;;43.25;;
67571;SDS011;54397;47.506;19.158;2022-10-29T21:32:46;82.68;;;41.63;;
67571;SDS011;54397;47.506;19.158;2022-10-29T21:36:10;71.65;;;40.90;;
67571;SDS011;54397;47.506;19.158;2022-10-29T21:39:35;71.70;;;41.50;;
67571;SDS011;54397;47.506;19.158;2022-10-29T21:42:56;79.78;;;45.15;;
67571;SDS011;54397;47.506;19.158;2022-10-29T21:46:22;85.75;;;43.10;;
67571;SDS011;54397;47.506;19.158;2022-10-29T21:49:45;78.95;;;43.38;;
67571;SDS011;54397;47.506;19.158;2022-10-29T21:53:12;82.80;;;40.92;;
67571;SDS011;54397;47.506;19.158;2022-10-29T21:56:41;75.22;;;41.28;;
67571;SDS011;54397;47.506;19.158;2022-10-29T22:00:05;77.65;;;43.10;;
67571;SDS011;54397;47.506;19.158;2022-10-29T22:03:32;71.50;;;41.45;;
67571;SDS011;54397;47.506;19.158;2022-10-29T22:07:03;72.15;;;41.22;;
67571;SDS011;54397;47.506;19.158;2022-10-29T22:10:27;66.28;;;37.10;;
67571;SDS011;54397;47.506;19.158;2022-10-29T22:13:51;55.25;;;31.80;;
67571;SDS011;54397;47.506;19.158;2022-10-29T22:17:16;46.17;;;28.50;;
67571;SDS011;54397;47.506;19.158;2022-10-29T22:20:41;42.40;;;26.17;;
67571;SDS011;54397;47.506;19.158;2022-10-29T22:24:05;42.33;;;25.00;;
67571;SDS011;54397;47.506;19.158;2022-10-29T22:27:27;37.15;;;24.38;;
67571;SDS011;54397;47.506;19.158;2022-10-29T22:30:55;38.85;;;23.90;;
67571;SDS011;54397;47.506;19.158;2022-10-29T22:34:22;38.15;;;22.70;;
67571;SDS011;54397;47.506;19.158;2022-10-29T22:37:43;35.03;;;22.77;;